Scranton, PA

11:58 PM EDT en Octubre 31, 2014 (GMT -0400)
Wilkes-Barre-Scranton International | Change Station
CLOSE
Current Station
Aeropuerto
Location: Avoca,
Altura: 961 ft
Estaciones meteorológicas cercanas

Alt 961 ft 41.33 °N, 75.72 °W | Updated 1 hour ago

Nublado
Nublado
48 ° F
Sensación térmica 48 ° F
N
4
Viento Variable Viento desde ENE

Hoy
Alta -- | Baja -- ° F
--% Posibilidad de precipitaciones
Ayer
Alta -- | Baja -- ° F
Precip. -- pul
7:32 AM 5:59 PM
Gibosa creciente, 62% visible
Presión 29.89 pul
Visibilidad 10.0 Millas
Nubes Nublado 6000 ft
Punto de rocío 33 ° F
Humedad 56%
Precipitaciones 0.00 pul
Espesor de la nieve No disponible.
UV 0 de una escala de 12
Polen .10 de una escala de 12
Calidad del aire No disponible.
Flu Activity No disponible.
METAR KAVP 010254Z 07003KT 10SM OVC060 09/01 A2988 RMK AO2 SLP121 T00890006 56004

More Conditions Fewer Conditions

Presión 29.89 pul
Visibilidad 10.0 Millas
Nubes Nublado 6000 ft
Punto de rocío 33 ° F
Humedad 56%
Precipitaciones 0.00 pul
Espesor de la nieve No disponible.
UV 0 de una escala de 12
Polen .10 de una escala de 12
Calidad del aire No disponible.
Flu Activity No disponible.
METAR KAVP 010254Z 07003KT 10SM OVC060 09/01 A2988 RMK AO2 SLP121 T00890006 56004

More Conditions Fewer Conditions

10-Day Weather Forecast

Almanac

Astronomía

Oct. 31, 2014 Salida Puesta
Hora real
Crepúsculo civil
Crepúsculo náutico
Crepúsculo astronómico
Luna
Horas de luz
Horas de luz
Tomorrow will be .
, % of the Moon is Illuminated

Extremos de hoy

Máximos del estado Bajos del estado

Community

WunderPhotos

Upload Photos

1,766,847 ¡fotos cargadas!

WunderBlogs® & News

Nearby

Calidad del aire

  Calidad del aire Índice AQ Contaminante
Not available.

Grosos de nieve

Estación Profundido Altura

Actividad de terremotos

Ciudad Distance Mag. Tiempo y dato
Magnitud mínima muestra es 2,5.

Temperaturas de aguas costeras

Lugar Temperatura

Estaciones meteorológicas cercanas